Time;durP1;ratioP1;P1;durP2;ratioP2;P2;SDS_P1;SDS_P2;PMS_P1;PMS_P2;Temp;Humidity;BMP_temperature;BMP_pressure;BME280_temperature;BME280_humidity;BME280_pressure;Samples;Min_cycle;Max_cycle;Signal;HPM_P1;HPM_P2
2021/05/19 00:01:32;;;;;;;;;;;16.10;74.80;;;;;;5034961;28;93646;-67
2021/05/19 00:03:57;;;;;;;;;;;16.10;74.80;;;;;;5034108;28;92614;-67
2021/05/19 00:06:23;;;;;;;;;;;16.10;74.80;;;;;;5036253;28;91955;-67
2021/05/19 00:08:48;;;;;;;;;;;16.00;74.60;;;;;;5032627;28;92183;-67
2021/05/19 00:11:14;;;;;;;;;;;16.00;74.80;;;;;;5034729;28;93131;-67
2021/05/19 00:13:40;;;;;;;;;;;16.00;74.80;;;;;;5037051;28;94716;-66
2021/05/19 00:16:07;;;;;;;;;;;16.00;74.80;;;;;;5035560;28;93734;-67
2021/05/19 00:18:33;;;;;;;;;;;16.00;75.40;;;;;;5036017;28;94320;-67
2021/05/19 00:20:59;;;;;;;;;;;16.00;74.70;;;;;;5036318;27;92218;-67
2021/05/19 00:23:24;;;;;;;;;;;16.00;74.60;;;;;;5037117;27;93814;-67
2021/05/19 00:25:50;;;;;;;;;;;16.00;74.90;;;;;;5036890;27;94519;-67
2021/05/19 00:28:15;;;;;;;;;;;15.90;74.70;;;;;;5040471;27;92215;-67
2021/05/19 00:30:41;;;;;;;;;;;15.90;74.80;;;;;;5036241;27;93803;-67
2021/05/19 00:33:06;;;;;;;;;;;15.90;74.80;;;;;;5037280;27;92202;-67
2021/05/19 00:35:32;;;;;;;;;;;15.90;74.50;;;;;;5038591;28;92710;-67
2021/05/19 00:37:58;;;;;;;;;;;15.90;74.70;;;;;;5038624;28;94156;-66
2021/05/19 00:40:23;;;;;;;;;;;15.80;74.50;;;;;;5040777;27;93832;-68
2021/05/19 00:42:49;;;;;;;;;;;15.90;74.40;;;;;;5037679;28;93095;-67
2021/05/19 00:45:14;;;;;;;;;;;15.90;74.50;;;;;;5036009;28;93673;-68
2021/05/19 00:47:41;;;;;;;;;;;15.90;74.40;;;;;;5039524;27;92190;-67
2021/05/19 00:50:11;;;;;;;;;;;15.80;75.10;;;;;;5035573;27;92565;-67
2021/05/19 00:52:36;;;;;;;;;;;15.80;74.30;;;;;;5038118;27;92140;-67
2021/05/19 00:55:02;;;;;;;;;;;15.80;74.40;;;;;;5038713;28;92519;-67
2021/05/19 00:57:29;;;;;;;;;;;15.80;74.50;;;;;;5038211;27;94679;-67
2021/05/19 00:59:54;;;;;;;;;;;15.80;74.40;;;;;;5038360;28;92243;-67
2021/05/19 01:02:20;;;;;;;;;;;15.80;74.30;;;;;;5039042;28;93135;-67
2021/05/19 01:04:46;;;;;;;;;;;15.80;74.40;;;;;;5039342;27;94629;-67
2021/05/19 01:07:33;;;;;;;;;;;15.70;74.30;;;;;;5040466;27;92173;-66
2021/05/19 01:09:59;;;;;;;;;;;15.70;74.40;;;;;;5041541;28;92631;-67
2021/05/19 01:12:24;;;;;;;;;;;15.70;74.30;;;;;;5040424;28;92216;-67
2021/05/19 01:14:51;;;;;;;;;;;15.70;74.30;;;;;;5038412;27;93663;-66
2021/05/19 01:17:17;;;;;;;;;;;15.70;74.30;;;;;;5039537;28;92891;-66
2021/05/19 01:19:44;;;;;;;;;;;15.70;74.30;;;;;;5040633;28;91426;-67
2021/05/19 01:22:10;;;;;;;;;;;15.70;74.40;;;;;;5039691;28;92254;-66
2021/05/19 01:24:36;;;;;;;;;;;15.70;74.30;;;;;;5038832;28;94250;-66
2021/05/19 01:27:02;;;;;;;;;;;15.60;74.20;;;;;;5039403;28;93119;-66
2021/05/19 01:29:28;;;;;;;;;;;15.60;74.10;;;;;;5037311;28;93286;-67
2021/05/19 01:31:53;;;;;;;;;;;15.60;74.20;;;;;;5038210;28;92610;-67
2021/05/19 01:34:19;;;;;;;;;;;15.60;74.20;;;;;;5036662;28;92273;-67
2021/05/19 01:36:44;;;;;;;;;;;15.60;74.10;;;;;;5037079;28;94571;-67
2021/05/19 01:39:10;;;;;;;;;;;15.60;74.10;;;;;;5037850;27;92191;-67
2021/05/19 01:41:36;;;;;;;;;;;15.50;74.20;;;;;;5039081;28;92326;-66
2021/05/19 01:44:15;;;;;;;;;;;15.50;74.30;;;;;;5039250;28;91913;-67
2021/05/19 01:46:41;;;;;;;;;;;15.50;74.10;;;;;;5037199;28;93316;-67
2021/05/19 01:49:07;;;;;;;;;;;15.50;74.20;;;;;;5038888;28;93914;-67
2021/05/19 01:51:34;;;;;;;;;;;15.50;74.20;;;;;;5037494;28;95380;-67
2021/05/19 01:54:00;;;;;;;;;;;15.50;73.90;;;;;;5041126;28;92215;-67
2021/05/19 01:56:26;;;;;;;;;;;15.50;74.00;;;;;;5036869;28;93293;-67
2021/05/19 01:58:51;;;;;;;;;;;15.50;74.20;;;;;;5036464;28;92152;-67
2021/05/19 02:01:18;;;;;;;;;;;15.50;74.10;;;;;;5035971;28;92571;-67
2021/05/19 02:03:43;;;;;;;;;;;15.40;74.10;;;;;;5037333;28;93504;-66
2021/05/19 02:06:09;;;;;;;;;;;15.40;74.00;;;;;;5039775;28;92129;-66
2021/05/19 02:08:35;;;;;;;;;;;15.40;74.00;;;;;;5039221;28;93923;-67
2021/05/19 02:11:00;;;;;;;;;;;15.40;74.00;;;;;;5038536;28;93103;-67
2021/05/19 02:13:26;;;;;;;;;;;15.40;74.00;;;;;;5035694;28;93154;-67
2021/05/19 02:15:51;;;;;;;;;;;15.40;73.70;;;;;;5039500;28;94708;-67
2021/05/19 02:18:17;;;;;;;;;;;15.40;74.00;;;;;;5038386;28;93722;-67
2021/05/19 02:20:42;;;;;;;;;;;15.40;74.20;;;;;;5035533;28;93347;-67
2021/05/19 02:23:08;;;;;;;;;;;15.30;73.90;;;;;;5034615;27;94418;-66
2021/05/19 02:25:33;;;;;;;;;;;15.30;74.10;;;;;;5036481;28;92180;-67
2021/05/19 02:27:59;;;;;;;;;;;15.30;74.00;;;;;;5037475;27;94121;-67
2021/05/19 02:30:27;;;;;;;;;;;15.30;73.80;;;;;;5038346;27;92391;-66
2021/05/19 02:32:53;;;;;;;;;;;15.30;74.00;;;;;;5036972;28;91479;-67
2021/05/19 02:35:19;;;;;;;;;;;15.30;74.00;;;;;;5039561;28;92157;-67
2021/05/19 02:37:44;;;;;;;;;;;15.20;73.90;;;;;;5036919;28;92132;-67
2021/05/19 02:40:11;;;;;;;;;;;15.20;73.80;;;;;;5035604;27;93130;-66
2021/05/19 02:42:36;;;;;;;;;;;15.20;73.80;;;;;;5033632;27;94258;-67
2021/05/19 02:45:03;;;;;;;;;;;15.20;73.80;;;;;;5036585;27;93352;-66
2021/05/19 02:47:29;;;;;;;;;;;15.20;73.80;;;;;;5037561;27;94586;-67
2021/05/19 02:49:54;;;;;;;;;;;15.20;73.90;;;;;;5036570;27;93074;-67
2021/05/19 02:52:20;;;;;;;;;;;15.20;73.90;;;;;;5038377;28;92139;-67
2021/05/19 02:54:45;;;;;;;;;;;15.10;73.70;;;;;;5036513;27;94297;-67
2021/05/19 02:57:11;;;;;;;;;;;15.10;73.90;;;;;;5037009;27;93596;-67
2021/05/19 02:59:36;;;;;;;;;;;15.10;73.80;;;;;;5035435;28;92161;-67
2021/05/19 03:02:02;;;;;;;;;;;15.10;73.90;;;;;;5035890;28;93285;-67
2021/05/19 03:04:27;;;;;;;;;;;15.10;73.90;;;;;;5035630;28;93093;-67
2021/05/19 03:06:53;;;;;;;;;;;15.10;73.70;;;;;;5035486;28;93479;-67
2021/05/19 03:09:19;;;;;;;;;;;15.10;73.70;;;;;;5035245;28;92719;-66
2021/05/19 03:11:44;;;;;;;;;;;15.00;73.70;;;;;;5036412;27;92158;-66
2021/05/19 03:14:10;;;;;;;;;;;15.00;73.70;;;;;;5037722;28;92765;-66
2021/05/19 03:16:37;;;;;;;;;;;15.00;73.70;;;;;;5036898;27;92768;-66
2021/05/19 03:19:04;;;;;;;;;;;15.00;73.80;;;;;;5037404;27;92175;-67
2021/05/19 03:21:29;;;;;;;;;;;15.00;73.80;;;;;;5036777;28;93153;-67
2021/05/19 03:23:55;;;;;;;;;;;15.00;73.70;;;;;;5036550;28;93601;-66
2021/05/19 03:26:20;;;;;;;;;;;15.00;73.60;;;;;;5033267;28;94876;-67
2021/05/19 03:28:46;;;;;;;;;;;15.00;73.60;;;;;;5032671;28;95899;-66
2021/05/19 03:31:12;;;;;;;;;;;14.90;73.60;;;;;;5036634;28;92870;-67
2021/05/19 03:33:38;;;;;;;;;;;14.90;73.70;;;;;;5035630;28;93964;-67
2021/05/19 03:36:05;;;;;;;;;;;14.90;73.60;;;;;;5032787;28;94480;-66
2021/05/19 03:38:30;;;;;;;;;;;14.90;73.70;;;;;;5035252;28;93378;-66
2021/05/19 03:40:56;;;;;;;;;;;14.90;73.50;;;;;;5036134;28;92227;-67
2021/05/19 03:43:21;;;;;;;;;;;14.90;73.60;;;;;;5034610;28;92186;-67
2021/05/19 03:45:47;;;;;;;;;;;14.90;73.70;;;;;;5035689;28;92042;-67
2021/05/19 03:48:12;;;;;;;;;;;14.80;74.10;;;;;;5035033;28;94266;-66
2021/05/19 03:50:39;;;;;;;;;;;14.90;73.60;;;;;;5036939;28;92186;-66
2021/05/19 03:53:05;;;;;;;;;;;14.80;73.60;;;;;;5034588;28;94180;-67
2021/05/19 03:55:31;;;;;;;;;;;14.80;73.60;;;;;;5035359;28;92216;-67
2021/05/19 03:57:57;;;;;;;;;;;14.80;73.70;;;;;;5036392;28;92171;-67
2021/05/19 04:00:24;;;;;;;;;;;14.80;73.70;;;;;;5035627;28;92391;-66
2021/05/19 04:02:50;;;;;;;;;;;14.80;73.60;;;;;;5035033;28;93269;-66
2021/05/19 04:05:19;;;;;;;;;;;14.70;73.60;;;;;;5033443;28;93759;-66
2021/05/19 04:07:47;;;;;;;;;;;14.70;73.70;;;;;;5034646;28;93313;-67
2021/05/19 04:10:13;;;;;;;;;;;14.70;73.60;;;;;;5037454;28;93154;-67
2021/05/19 04:12:38;;;;;;;;;;;14.70;73.50;;;;;;5037349;28;92160;-66
2021/05/19 04:15:04;;;;;;;;;;;14.70;73.70;;;;;;5035704;28;92677;-67
2021/05/19 04:17:30;;;;;;;;;;;14.70;73.60;;;;;;5034395;28;93092;-66
2021/05/19 04:19:55;;;;;;;;;;;14.70;73.70;;;;;;5034122;27;94817;-67
2021/05/19 04:22:21;;;;;;;;;;;14.70;73.70;;;;;;5033072;28;94477;-66
2021/05/19 04:24:46;;;;;;;;;;;14.70;73.50;;;;;;5036001;28;92155;-66
2021/05/19 04:27:12;;;;;;;;;;;14.60;73.40;;;;;;5031973;28;92591;-66
2021/05/19 04:29:37;;;;;;;;;;;14.60;73.40;;;;;;5032630;28;92211;-67
2021/05/19 04:32:03;;;;;;;;;;;14.60;73.50;;;;;;5033391;28;93011;-67
2021/05/19 04:34:28;;;;;;;;;;;14.60;73.50;;;;;;5032613;27;92244;-67
2021/05/19 04:36:54;;;;;;;;;;;14.60;73.60;;;;;;5033336;27;93857;-66
2021/05/19 04:39:19;;;;;;;;;;;14.60;73.70;;;;;;5032722;28;93121;-67
2021/05/19 04:41:45;;;;;;;;;;;14.60;73.70;;;;;;5032211;27;95790;-67
2021/05/19 04:44:11;;;;;;;;;;;14.60;73.50;;;;;;5037706;27;92180;-67
2021/05/19 04:46:38;;;;;;;;;;;14.50;73.40;;;;;;5035268;27;93030;-67
2021/05/19 04:49:03;;;;;;;;;;;14.60;73.50;;;;;;5034567;28;92158;-67
2021/05/19 04:51:29;;;;;;;;;;;14.60;73.40;;;;;;5035892;28;92637;-66
2021/05/19 04:53:54;;;;;;;;;;;14.50;73.50;;;;;;5036673;28;93234;-67
2021/05/19 04:56:20;;;;;;;;;;;14.60;73.40;;;;;;5033945;27;93081;-66
2021/05/19 04:58:45;;;;;;;;;;;14.50;73.50;;;;;;5032984;27;94354;-66
2021/05/19 05:01:11;;;;;;;;;;;14.50;73.60;;;;;;5033244;27;94774;-66
2021/05/19 05:03:37;;;;;;;;;;;14.50;73.60;;;;;;5034900;27;92143;-67
2021/05/19 05:06:02;;;;;;;;;;;14.50;73.60;;;;;;5038204;28;93130;-66
2021/05/19 05:08:28;;;;;;;;;;;14.50;73.50;;;;;;5036137;28;94376;-67
2021/05/19 05:10:54;;;;;;;;;;;14.50;73.50;;;;;;5033723;27;93010;-67
2021/05/19 05:13:19;;;;;;;;;;;14.50;73.50;;;;;;5031543;27;92587;-69
2021/05/19 05:15:45;;;;;;;;;;;14.50;73.60;;;;;;5035206;28;92170;-68
2021/05/19 05:18:10;;;;;;;;;;;14.50;73.70;;;;;;5035776;28;92157;-69
2021/05/19 05:20:36;;;;;;;;;;;14.50;73.70;;;;;;5036593;28;93101;-69
2021/05/19 05:23:01;;;;;;;;;;;14.50;73.70;;;;;;5038532;28;91467;-69
2021/05/19 05:25:27;;;;;;;;;;;14.50;73.70;;;;;;5038955;28;92237;-69
2021/05/19 05:27:54;;;;;;;;;;;14.60;73.80;;;;;;5040633;28;93070;-69
2021/05/19 05:30:20;;;;;;;;;;;14.60;73.80;;;;;;5034925;28;93136;-69
2021/05/19 05:32:45;;;;;;;;;;;14.50;73.80;;;;;;5035922;28;93930;-69
2021/05/19 05:35:11;;;;;;;;;;;14.50;73.80;;;;;;5037808;28;92154;-69
2021/05/19 05:37:37;;;;;;;;;;;14.60;73.90;;;;;;5038573;28;93546;-69
2021/05/19 05:40:04;;;;;;;;;;;14.60;73.80;;;;;;5038358;28;94340;-70
2021/05/19 05:42:29;;;;;;;;;;;14.60;73.80;;;;;;5037100;28;92154;-69
2021/05/19 05:44:55;;;;;;;;;;;14.60;74.00;;;;;;5038503;28;92299;-69
2021/05/19 05:47:20;;;;;;;;;;;14.60;73.80;;;;;;5039369;28;93186;-69
2021/05/19 05:49:46;;;;;;;;;;;14.60;73.80;;;;;;5042519;28;92246;-69
2021/05/19 05:52:11;;;;;;;;;;;14.60;73.90;;;;;;5038347;28;93262;-70
2021/05/19 05:54:37;;;;;;;;;;;14.60;74.10;;;;;;5037452;28;93154;-69
2021/05/19 05:57:03;;;;;;;;;;;14.60;74.00;;;;;;5038847;28;94594;-69
2021/05/19 05:59:29;;;;;;;;;;;14.60;74.00;;;;;;5038259;28;94262;-69
2021/05/19 06:01:55;;;;;;;;;;;14.60;74.10;;;;;;5039585;28;92179;-69
2021/05/19 06:04:21;;;;;;;;;;;14.60;74.20;;;;;;5038815;28;92217;-69
2021/05/19 06:06:46;;;;;;;;;;;14.60;74.20;;;;;;5037547;28;93329;-69
2021/05/19 06:09:12;;;;;;;;;;;14.60;74.20;;;;;;5038249;28;92184;-70
2021/05/19 06:11:38;;;;;;;;;;;14.60;74.30;;;;;;5039994;28;92502;-69
2021/05/19 06:14:03;;;;;;;;;;;14.50;74.30;;;;;;5036902;28;92180;-70
2021/05/19 06:16:29;;;;;;;;;;;14.60;74.20;;;;;;5037924;28;92358;-70
2021/05/19 06:18:54;;;;;;;;;;;14.60;74.30;;;;;;5035720;28;93905;-68
2021/05/19 06:21:20;;;;;;;;;;;14.60;74.40;;;;;;5036287;27;92200;-67
2021/05/19 06:23:46;;;;;;;;;;;14.60;74.40;;;;;;5035503;27;92585;-67
2021/05/19 06:26:11;;;;;;;;;;;14.60;74.40;;;;;;5034040;27;93958;-67
2021/05/19 06:28:37;;;;;;;;;;;14.60;74.50;;;;;;5035355;28;92212;-67
2021/05/19 06:31:02;;;;;;;;;;;14.60;74.50;;;;;;5036080;28;92186;-67
2021/05/19 06:33:28;;;;;;;;;;;14.60;74.60;;;;;;5039912;27;92504;-68
2021/05/19 06:35:53;;;;;;;;;;;14.60;74.60;;;;;;5037680;27;93432;-67
2021/05/19 06:38:19;;;;;;;;;;;14.60;74.60;;;;;;5035741;28;92811;-68
2021/05/19 06:40:44;;;;;;;;;;;14.60;74.60;;;;;;5035533;27;92165;-68
2021/05/19 06:43:10;;;;;;;;;;;14.60;74.50;;;;;;5034520;27;93157;-67
2021/05/19 06:45:36;;;;;;;;;;;14.60;74.70;;;;;;5035598;27;94628;-68
2021/05/19 06:48:02;;;;;;;;;;;14.60;74.70;;;;;;5037254;27;92182;-68
2021/05/19 06:50:27;;;;;;;;;;;14.60;74.70;;;;;;5037923;28;92372;-69
2021/05/19 06:52:53;;;;;;;;;;;14.60;74.70;;;;;;5040444;27;93277;-70
2021/05/19 06:55:19;;;;;;;;;;;14.60;74.70;;;;;;5038367;28;93984;-69
2021/05/19 06:57:45;;;;;;;;;;;14.60;74.60;;;;;;5037197;27;94565;-70
2021/05/19 07:00:11;;;;;;;;;;;14.60;75.30;;;;;;5036000;27;93021;-69
2021/05/19 07:02:37;;;;;;;;;;;14.70;74.80;;;;;;5033892;28;92198;-69
2021/05/19 07:05:06;;;;;;;;;;;14.60;74.70;;;;;;5037654;27;94674;-70
2021/05/19 07:07:32;;;;;;;;;;;14.70;74.80;;;;;;5033781;27;93141;-70
2021/05/19 07:09:57;;;;;;;;;;;14.70;74.80;;;;;;5035354;27;94262;-69
2021/05/19 07:12:23;;;;;;;;;;;14.70;74.90;;;;;;5036258;27;93230;-70
2021/05/19 07:14:56;;;;;;;;;;;14.70;74.90;;;;;;5040512;27;92166;-70
2021/05/19 07:17:21;;;;;;;;;;;14.70;74.90;;;;;;5032934;27;94232;-69
2021/05/19 07:19:47;;;;;;;;;;;14.70;74.90;;;;;;5035556;28;93910;-70
2021/05/19 07:22:13;;;;;;;;;;;14.70;74.90;;;;;;5037963;28;92982;-70
2021/05/19 07:24:38;;;;;;;;;;;14.70;74.90;;;;;;5037723;28;94137;-69
2021/05/19 07:27:04;;;;;;;;;;;14.70;75.00;;;;;;5037115;28;92176;-69
2021/05/19 07:29:29;;;;;;;;;;;14.80;75.00;;;;;;5036275;28;92959;-70
2021/05/19 07:31:56;;;;;;;;;;;14.80;75.00;;;;;;5034613;28;96009;-70
2021/05/19 07:34:22;;;;;;;;;;;14.80;74.90;;;;;;5035063;28;92280;-70
2021/05/19 07:36:47;;;;;;;;;;;14.80;74.90;;;;;;5038020;28;93523;-70
2021/05/19 07:39:13;;;;;;;;;;;14.80;74.90;;;;;;5036635;28;92197;-69
2021/05/19 07:41:39;;;;;;;;;;;14.80;74.90;;;;;;5035096;28;94099;-70
2021/05/19 07:44:05;;;;;;;;;;;14.80;75.00;;;;;;5034307;28;93977;-69
2021/05/19 07:46:31;;;;;;;;;;;14.80;75.00;;;;;;5035439;28;92229;-69
2021/05/19 07:48:56;;;;;;;;;;;14.80;75.10;;;;;;5036073;28;92649;-69
2021/05/19 07:51:22;;;;;;;;;;;14.80;75.10;;;;;;5036116;28;94345;-69
2021/05/19 07:53:47;;;;;;;;;;;14.90;75.20;;;;;;5037667;28;93806;-70
2021/05/19 07:58:46;;;;;;;;;;;14.90;75.10;;;;;;5036133;28;93082;-69
2021/05/19 08:03:43;;;;;;;;;;;14.90;75.10;;;;;;5036322;28;93078;-69
2021/05/19 08:06:08;;;;;;;;;;;14.90;75.10;;;;;;5033423;28;93182;-70
2021/05/19 08:08:34;;;;;;;;;;;14.90;75.10;;;;;;5033721;28;93848;-69
2021/05/19 08:10:59;;;;;;;;;;;14.90;75.10;;;;;;5033797;28;93258;-69
2021/05/19 08:13:25;;;;;;;;;;;15.00;75.20;;;;;;5034314;28;91487;-69
2021/05/19 08:15:50;;;;;;;;;;;14.90;75.10;;;;;;5034851;28;92160;-69
2021/05/19 08:18:18;;;;;;;;;;;14.90;75.30;;;;;;5035303;28;93134;-69
2021/05/19 08:20:44;;;;;;;;;;;15.00;75.30;;;;;;5036677;27;93118;-69
2021/05/19 08:23:09;;;;;;;;;;;15.00;75.10;;;;;;5034905;28;93190;-70
2021/05/19 08:25:35;;;;;;;;;;;15.00;75.20;;;;;;5036590;28;92154;-69
2021/05/19 08:28:00;;;;;;;;;;;15.00;75.30;;;;;;5036427;28;93678;-69
2021/05/19 08:30:26;;;;;;;;;;;15.00;75.30;;;;;;5032333;27;94652;-69
2021/05/19 08:32:52;;;;;;;;;;;15.00;75.30;;;;;;5032295;27;92511;-69
2021/05/19 08:35:18;;;;;;;;;;;15.00;75.40;;;;;;5036133;27;93622;-69
2021/05/19 08:37:43;;;;;;;;;;;15.00;75.40;;;;;;5036328;27;94338;-69
2021/05/19 08:40:09;;;;;;;;;;;15.10;75.40;;;;;;5033162;27;93002;-70
2021/05/19 08:42:35;;;;;;;;;;;15.00;75.40;;;;;;5035188;28;92620;-69
2021/05/19 08:45:01;;;;;;;;;;;15.00;75.40;;;;;;5032391;27;93155;-69
2021/05/19 08:47:27;;;;;;;;;;;15.00;75.50;;;;;;5032950;27;94828;-70
2021/05/19 08:49:53;;;;;;;;;;;15.10;75.60;;;;;;5035677;28;95186;-69
2021/05/19 08:52:19;;;;;;;;;;;15.00;75.50;;;;;;5038008;27;92154;-69
2021/05/19 08:54:45;;;;;;;;;;;15.10;75.60;;;;;;5038196;27;93672;-69
2021/05/19 08:57:11;;;;;;;;;;;15.10;75.50;;;;;;5038772;27;94242;-69
2021/05/19 08:59:37;;;;;;;;;;;15.10;75.60;;;;;;5038035;28;92162;-69
2021/05/19 09:02:10;;;;;;;;;;;15.10;75.50;;;;;;5039788;27;93884;-69
2021/05/19 09:04:35;;;;;;;;;;;15.10;75.70;;;;;;5036321;27;93782;-69
2021/05/19 09:07:02;;;;;;;;;;;15.20;75.60;;;;;;5036581;27;94043;-70
2021/05/19 09:09:30;;;;;;;;;;;15.20;75.70;;;;;;5034339;28;94972;-70
2021/05/19 09:12:00;;;;;;;;;;;15.20;75.50;;;;;;5038200;27;92165;-69
2021/05/19 09:14:27;;;;;;;;;;;15.20;75.70;;;;;;5039686;27;94007;-69
2021/05/19 09:16:54;;;;;;;;;;;15.20;75.80;;;;;;5038458;27;94118;-70
2021/05/19 09:19:32;;;;;;;;;;;15.20;75.70;;;;;;5037743;28;92174;-70
2021/05/19 09:21:57;;;;;;;;;;;15.20;75.80;;;;;;5035717;28;93446;-70
2021/05/19 09:24:34;;;;;;;;;;;15.20;75.70;;;;;;5039513;28;92713;-69
2021/05/19 09:27:02;;;;;;;;;;;15.30;75.80;;;;;;5037598;28;94479;-69
2021/05/19 09:29:33;;;;;;;;;;;15.30;75.80;;;;;;5038733;28;94751;-69
2021/05/19 09:32:03;;;;;;;;;;;15.30;75.80;;;;;;5038903;28;93767;-70
2021/05/19 09:34:30;;;;;;;;;;;15.40;75.80;;;;;;5034732;28;93163;-69
2021/05/19 09:37:11;;;;;;;;;;;15.30;75.80;;;;;;5035235;28;94582;-70
2021/05/19 09:39:55;;;;;;;;;;;15.30;75.80;;;;;;5036213;28;92185;-69
2021/05/19 09:42:24;;;;;;;;;;;15.30;75.90;;;;;;5039539;28;92522;-69
2021/05/19 09:44:50;;;;;;;;;;;15.40;75.80;;;;;;5034825;28;92956;-69
2021/05/19 09:47:34;;;;;;;;;;;15.40;75.90;;;;;;5043108;28;92170;-69
2021/05/19 09:50:00;;;;;;;;;;;15.50;75.90;;;;;;5034202;28;92843;-70
2021/05/19 09:52:25;;;;;;;;;;;15.50;75.80;;;;;;5036939;28;91729;-69
2021/05/19 09:54:51;;;;;;;;;;;15.50;75.80;;;;;;5035527;28;92786;-69
2021/05/19 09:57:17;;;;;;;;;;;15.50;75.90;;;;;;5036218;28;93190;-69
2021/05/19 09:59:43;;;;;;;;;;;15.50;75.70;;;;;;5036054;27;93137;-70
2021/05/19 10:02:09;;;;;;;;;;;15.50;75.70;;;;;;5037049;28;95170;-69
2021/05/19 10:04:39;;;;;;;;;;;15.60;75.70;;;;;;5036966;28;94523;-69
2021/05/19 10:07:10;;;;;;;;;;;15.60;75.80;;;;;;5037219;28;92801;-69
2021/05/19 10:09:36;;;;;;;;;;;15.60;75.80;;;;;;5039277;28;93648;-69
2021/05/19 10:12:03;;;;;;;;;;;15.60;75.70;;;;;;5034845;28;92277;-69
2021/05/19 10:14:28;;;;;;;;;;;15.60;75.60;;;;;;5035909;28;93991;-69
2021/05/19 10:17:02;;;;;;;;;;;15.70;75.50;;;;;;5035302;28;92018;-69
2021/05/19 10:19:31;;;;;;;;;;;15.70;75.60;;;;;;5038325;28;92186;-69
2021/05/19 10:21:58;;;;;;;;;;;15.70;75.60;;;;;;5035872;27;92317;-69
2021/05/19 10:24:42;;;;;;;;;;;15.70;75.60;;;;;;5033868;27;93968;-69
2021/05/19 10:27:08;;;;;;;;;;;15.70;75.60;;;;;;5037657;28;92216;-69
2021/05/19 10:29:49;;;;;;;;;;;15.70;75.60;;;;;;5037008;27;93437;-69
2021/05/19 10:32:29;;;;;;;;;;;15.70;75.60;;;;;;5040973;27;94573;-68
2021/05/19 10:34:56;;;;;;;;;;;15.80;75.70;;;;;;5039133;27;93904;-69
2021/05/19 10:37:27;;;;;;;;;;;15.80;75.70;;;;;;5037621;27;94477;-69
2021/05/19 10:40:18;;;;;;;;;;;15.80;75.80;;;;;;5038076;27;92313;-69
2021/05/19 10:42:51;;;;;;;;;;;15.80;75.70;;;;;;5036289;27;91961;-70
2021/05/19 10:45:16;;;;;;;;;;;15.80;76.20;;;;;;5037509;27;92673;-69
2021/05/19 10:47:44;;;;;;;;;;;15.80;75.70;;;;;;5038208;27;93440;-68
2021/05/19 10:50:24;;;;;;;;;;;15.90;75.70;;;;;;5037065;28;93634;-67
2021/05/19 11:01:09;;;;;;;;;;;15.90;75.90;;;;;;5033815;27;92192;-67
2021/05/19 11:03:35;;;;;;;;;;;15.90;75.80;;;;;;5036933;27;93295;-67
2021/05/19 11:06:02;;;;;;;;;;;15.90;75.90;;;;;;5036991;27;92660;-68
2021/05/19 11:08:28;;;;;;;;;;;16.00;75.90;;;;;;5035438;28;91530;-68
2021/05/19 11:11:13;;;;;;;;;;;16.00;75.80;;;;;;5034363;28;92874;-67
2021/05/19 11:13:58;;;;;;;;;;;16.00;75.90;;;;;;5036082;27;94940;-68
2021/05/19 11:16:29;;;;;;;;;;;16.00;75.80;;;;;;5036170;27;93145;-67
2021/05/19 11:21:55;;;;;;;;;;;16.10;75.80;;;;;;5031125;28;94268;-67
2021/05/19 11:24:25;;;;;;;;;;;16.10;75.70;;;;;;5037748;28;92464;-67
2021/05/19 11:26:51;;;;;;;;;;;16.10;75.70;;;;;;5037487;28;93911;-67
2021/05/19 11:29:17;;;;;;;;;;;16.20;75.60;;;;;;5038045;28;92525;-67
2021/05/19 11:31:44;;;;;;;;;;;16.20;75.60;;;;;;5037452;28;92444;-68
2021/05/19 11:34:11;;;;;;;;;;;16.20;75.50;;;;;;5035531;28;92345;-68
2021/05/19 11:36:47;;;;;;;;;;;16.20;75.60;;;;;;5034063;28;92202;-67
2021/05/19 11:39:21;;;;;;;;;;;16.30;75.60;;;;;;5037232;28;93669;-67
2021/05/19 11:41:47;;;;;;;;;;;16.30;76.20;;;;;;5035998;28;93206;-68
2021/05/19 11:44:35;;;;;;;;;;;16.30;75.60;;;;;;5036714;28;94707;-67
2021/05/19 11:47:01;;;;;;;;;;;16.40;75.50;;;;;;5033730;28;94524;-68
2021/05/19 11:49:27;;;;;;;;;;;16.30;75.40;;;;;;5032989;28;92202;-67
2021/05/19 11:51:53;;;;;;;;;;;16.40;75.50;;;;;;5033133;28;93948;-67
2021/05/19 11:54:21;;;;;;;;;;;16.40;75.30;;;;;;5035639;28;94795;-67
2021/05/19 11:56:48;;;;;;;;;;;16.50;75.20;;;;;;5035696;28;92597;-68
2021/05/19 11:59:14;;;;;;;;;;;16.50;75.30;;;;;;5037770;28;92589;-68
2021/05/19 12:01:57;;;;;;;;;;;16.50;75.20;;;;;;5038937;28;94957;-68
2021/05/19 12:04:22;;;;;;;;;;;16.50;75.30;;;;;;5036064;28;93888;-68
2021/05/19 12:06:48;;;;;;;;;;;16.50;75.20;;;;;;5035263;28;95494;-68
2021/05/19 12:09:15;;;;;;;;;;;16.50;75.10;;;;;;5033310;28;92214;-68
2021/05/19 12:11:41;;;;;;;;;;;16.50;75.10;;;;;;5034080;28;92599;-67
2021/05/19 12:14:10;;;;;;;;;;;16.60;75.10;;;;;;5035195;28;94701;-68
2021/05/19 12:16:35;;;;;;;;;;;16.60;75.30;;;;;;5036742;28;92248;-68
2021/05/19 12:19:09;;;;;;;;;;;16.60;75.10;;;;;;5035998;27;94010;-67
2021/05/19 12:21:38;;;;;;;;;;;16.60;75.30;;;;;;5034120;27;94025;-67
2021/05/19 12:24:05;;;;;;;;;;;16.60;75.10;;;;;;5038106;27;91479;-68
2021/05/19 12:26:31;;;;;;;;;;;16.60;75.10;;;;;;5036124;28;92927;-68
2021/05/19 12:28:56;;;;;;;;;;;16.70;75.10;;;;;;5036300;28;93887;-67
2021/05/19 12:31:33;;;;;;;;;;;16.70;75.00;;;;;;5034490;27;93855;-68
2021/05/19 12:33:59;;;;;;;;;;;16.80;75.00;;;;;;5036838;27;92649;-67
2021/05/19 12:36:24;;;;;;;;;;;16.70;75.00;;;;;;5036621;27;92229;-67
2021/05/19 12:38:50;;;;;;;;;;;16.70;75.00;;;;;;5037342;28;92804;-67
2021/05/19 12:41:35;;;;;;;;;;;16.80;75.00;;;;;;5034832;27;94352;-68
2021/05/19 12:44:00;;;;;;;;;;;16.80;74.80;;;;;;5036050;28;92210;-67
2021/05/19 12:46:26;;;;;;;;;;;16.80;74.80;;;;;;5038427;27;93960;-68
2021/05/19 12:48:52;;;;;;;;;;;16.80;75.00;;;;;;5036612;27;91517;-68
2021/05/19 12:51:18;;;;;;;;;;;16.90;74.70;;;;;;5035443;27;92897;-68
2021/05/19 12:53:48;;;;;;;;;;;16.90;74.90;;;;;;5033001;27;93946;-68
2021/05/19 12:56:17;;;;;;;;;;;16.90;75.00;;;;;;5035471;27;93202;-67
2021/05/19 12:59:06;;;;;;;;;;;16.90;74.90;;;;;;5034436;27;94230;-67
2021/05/19 13:01:42;;;;;;;;;;;17.00;74.70;;;;;;5035149;27;93961;-67
2021/05/19 13:04:08;;;;;;;;;;;17.00;74.80;;;;;;5033999;27;93657;-68
2021/05/19 13:06:35;;;;;;;;;;;17.00;74.30;;;;;;5035820;27;93591;-67
2021/05/19 13:09:02;;;;;;;;;;;17.10;74.40;;;;;;5034368;27;93201;-67
2021/05/19 13:11:29;;;;;;;;;;;17.10;74.40;;;;;;5035407;27;92771;-67
2021/05/19 13:13:55;;;;;;;;;;;17.10;74.30;;;;;;5034499;27;93656;-67
2021/05/19 13:16:22;;;;;;;;;;;17.20;74.30;;;;;;5035429;27;92231;-67
2021/05/19 13:23:51;;;;;;;;;;;17.30;74.20;;;;;;5033542;28;92205;-68
2021/05/19 13:26:18;;;;;;;;;;;17.40;74.30;;;;;;5033786;28;93376;-68
2021/05/19 13:28:44;;;;;;;;;;;17.40;74.30;;;;;;5034624;28;94659;-67
2021/05/19 13:31:11;;;;;;;;;;;17.40;73.90;;;;;;5035088;28;94068;-67
2021/05/19 13:38:39;;;;;;;;;;;17.50;73.80;;;;;;5037684;28;92591;-68
2021/05/19 13:41:05;;;;;;;;;;;17.50;73.90;;;;;;5035310;28;92834;-67
2021/05/19 13:43:31;;;;;;;;;;;17.50;74.00;;;;;;5035061;28;92172;-68
2021/05/19 13:45:59;;;;;;;;;;;17.60;73.50;;;;;;5038017;28;94793;-67
2021/05/19 13:48:24;;;;;;;;;;;17.60;73.80;;;;;;5038797;28;94729;-67
2021/05/19 13:50:50;;;;;;;;;;;17.60;73.70;;;;;;5041383;28;92202;-68
2021/05/19 13:53:16;;;;;;;;;;;17.70;73.90;;;;;;5034917;28;94514;-68
2021/05/19 13:55:41;;;;;;;;;;;17.70;74.30;;;;;;5035417;28;92217;-68
2021/05/19 13:58:07;;;;;;;;;;;17.70;73.90;;;;;;5037797;28;92237;-67
2021/05/19 14:00:32;;;;;;;;;;;17.70;74.30;;;;;;5038594;28;94233;-68
2021/05/19 14:02:58;;;;;;;;;;;17.80;74.10;;;;;;5039391;28;91492;-67
2021/05/19 14:05:27;;;;;;;;;;;17.80;73.80;;;;;;5036520;28;92196;-68
2021/05/19 14:07:53;;;;;;;;;;;17.90;74.00;;;;;;5036277;28;94584;-68
2021/05/19 14:10:21;;;;;;;;;;;17.90;73.90;;;;;;5036047;28;93148;-68
2021/05/19 14:12:50;;;;;;;;;;;18.00;73.80;;;;;;5040001;28;93550;-68
2021/05/19 14:20:56;;;;;;;;;;;18.00;74.10;;;;;;5038673;27;93161;-68
2021/05/19 14:28:46;;;;;;;;;;;18.10;74.00;;;;;;5037721;27;92280;-68
2021/05/19 14:31:11;;;;;;;;;;;18.10;73.80;;;;;;5037743;27;93732;-68
2021/05/19 14:33:37;;;;;;;;;;;18.20;74.20;;;;;;5039131;27;93401;-67
2021/05/19 14:39:55;;;;;;;;;;;18.30;73.80;;;;;;5036347;27;94767;-68
2021/05/19 14:47:14;;;;;;;;;;;18.40;73.90;;;;;;5035868;28;92190;-68
2021/05/19 15:00:05;;;;;;;;;;;18.40;74.30;;;;;;5040849;28;93171;-69
2021/05/19 15:02:32;;;;;;;;;;;18.50;74.10;;;;;;5036390;27;94189;-68
2021/05/19 15:04:57;;;;;;;;;;;18.50;74.20;;;;;;5036570;27;93425;-68
2021/05/19 15:07:24;;;;;;;;;;;18.50;74.20;;;;;;5038521;27;93922;-67
2021/05/19 15:09:49;;;;;;;;;;;18.50;74.30;;;;;;5036008;27;94453;-68
2021/05/19 15:12:15;;;;;;;;;;;18.60;74.30;;;;;;5035215;28;93681;-68